Time;durP1;ratioP1;P1;durP2;ratioP2;P2;SDS_P1;SDS_P2;PMS_P1;PMS_P2;Temp;Humidity;BMP_temperature;BMP_pressure;BME280_temperature;BME280_humidity;BME280_pressure;Samples;Min_cycle;Max_cycle;Signal;HPM_P1;HPM_P2
2022/12/27 00:01:44;;;;;;;5.53;4.47;;;12.60;96.70;;;;;;4901406;29;20046;-74
2022/12/27 00:04:12;;;;;;;6.25;4.28;;;12.60;96.70;;;;;;4922176;29;20040;-74
2022/12/27 00:06:40;;;;;;;7.40;4.50;;;12.60;96.70;;;;;;4917224;29;20519;-75
2022/12/27 00:09:09;;;;;;;5.78;3.55;;;12.50;96.70;;;;;;4899321;29;20107;-75
2022/12/27 00:11:38;;;;;;;6.22;4.50;;;12.60;96.70;;;;;;4900140;29;20051;-75
2022/12/27 00:14:06;;;;;;;11.20;7.18;;;12.60;96.70;;;;;;4899589;29;20122;-74
2022/12/27 00:16:34;;;;;;;10.75;6.93;;;12.60;96.70;;;;;;4894952;29;20546;-75
2022/12/27 00:19:02;;;;;;;12.02;7.85;;;12.60;96.70;;;;;;4918544;29;20043;-73
2022/12/27 00:21:30;;;;;;;10.32;7.57;;;12.60;96.70;;;;;;4914708;29;20044;-75
2022/12/27 00:23:59;;;;;;;11.05;6.97;;;12.60;96.70;;;;;;4902347;29;20498;-76
2022/12/27 00:26:29;;;;;;;8.30;5.75;;;12.60;96.70;;;;;;4891739;29;20513;-74
2022/12/27 00:28:59;;;;;;;8.32;6.18;;;12.60;96.70;;;;;;4898950;29;20083;-75
2022/12/27 00:31:29;;;;;;;8.93;6.10;;;12.60;96.70;;;;;;4892006;29;20371;-75
2022/12/27 00:34:00;;;;;;;8.80;6.65;;;12.60;96.70;;;;;;4916398;29;20477;-75
2022/12/27 00:36:30;;;;;;;8.10;6.28;;;12.60;96.70;;;;;;4896589;29;20604;-75
2022/12/27 00:38:59;;;;;;;9.27;5.90;;;12.60;96.70;;;;;;4898590;29;20040;-75
2022/12/27 00:41:27;;;;;;;7.88;5.63;;;12.60;96.70;;;;;;4909288;29;20048;-74
2022/12/27 00:43:55;;;;;;;7.55;5.85;;;12.50;96.70;;;;;;4900187;29;20141;-75
2022/12/27 00:46:24;;;;;;;7.05;6.03;;;12.60;96.70;;;;;;4891507;29;20417;-74
2022/12/27 00:48:54;;;;;;;7.10;6.10;;;12.60;96.70;;;;;;4912035;29;20068;-75
2022/12/27 00:51:23;;;;;;;8.50;6.40;;;12.50;96.70;;;;;;4911891;29;20208;-74
2022/12/27 00:53:52;;;;;;;8.82;6.15;;;12.50;96.70;;;;;;4910014;29;20499;-74
2022/12/27 00:56:23;;;;;;;8.30;6.15;;;12.50;96.70;;;;;;4901282;29;20418;-75
2022/12/27 00:58:53;;;;;;;8.15;6.32;;;12.50;96.70;;;;;;4917180;29;20040;-75
2022/12/27 01:01:25;;;;;;;7.55;5.80;;;12.50;96.70;;;;;;4920868;29;20047;-75
2022/12/27 01:03:55;;;;;;;9.43;5.65;;;12.50;96.70;;;;;;4905182;29;20056;-75
2022/12/27 01:06:27;;;;;;;9.30;6.32;;;12.40;96.70;;;;;;4892484;29;20035;-75
2022/12/27 01:08:56;;;;;;;8.55;6.20;;;12.40;96.70;;;;;;4908828;29;20056;-74
2022/12/27 01:11:27;;;;;;;6.72;5.75;;;12.40;96.70;;;;;;4907360;29;20048;-74
2022/12/27 01:13:55;;;;;;;7.15;6.10;;;12.40;96.70;;;;;;4900624;29;20414;-75
2022/12/27 01:16:26;;;;;;;8.75;6.30;;;12.50;96.70;;;;;;4903766;29;20099;-75
2022/12/27 01:18:54;;;;;;;10.38;6.50;;;12.50;96.70;;;;;;4915816;29;20051;-75
2022/12/27 01:21:24;;;;;;;8.00;6.88;;;12.50;96.70;;;;;;4916874;29;20043;-74
2022/12/27 01:23:52;;;;;;;10.80;7.47;;;12.50;96.70;;;;;;4901266;29;20518;-75
2022/12/27 01:26:21;;;;;;;8.07;6.50;;;12.50;96.70;;;;;;4894413;29;20032;-75
2022/12/27 01:28:50;;;;;;;9.90;7.00;;;12.50;96.70;;;;;;4882614;29;20076;-75
2022/12/27 01:31:20;;;;;;;7.50;6.70;;;12.50;96.70;;;;;;4898593;29;20874;-75
2022/12/27 01:33:54;;;;;;;11.45;7.25;;;12.50;96.70;;;;;;4890626;29;20074;-75
2022/12/27 01:36:24;;;;;;;9.90;7.35;;;12.50;96.70;;;;;;4919139;29;20044;-75
2022/12/27 01:38:52;;;;;;;6.85;6.15;;;12.50;96.70;;;;;;4914322;29;20127;-75
2022/12/27 01:44:48;;;;;;;6.93;6.22;;;12.40;96.70;;;;;;4896431;29;20053;-75
2022/12/27 01:47:26;;;;;;;8.20;6.68;;;12.40;96.70;;;;;;4896763;29;20628;-75
2022/12/27 01:50:06;;;;;;;10.65;6.55;;;12.40;96.70;;;;;;4897013;29;20172;-75
2022/12/27 01:52:35;;;;;;;;;;;12.40;96.70;;;;;;4892240;29;20072;-76
2022/12/27 01:55:10;;;;;;;7.25;5.72;;;12.40;96.70;;;;;;4891574;29;19938;-75
2022/12/27 01:57:38;;;;;;;8.38;6.40;;;12.50;96.70;;;;;;4878611;29;20061;-75
2022/12/27 02:00:09;;;;;;;8.10;6.25;;;12.50;96.70;;;;;;4901415;29;20048;-76
2022/12/27 02:02:38;;;;;;;9.02;6.07;;;12.50;96.70;;;;;;4896460;29;20053;-75
2022/12/27 02:05:11;;;;;;;8.05;6.38;;;12.50;96.70;;;;;;4897187;29;20410;-75
2022/12/27 02:07:46;;;;;;;9.70;6.18;;;12.50;96.70;;;;;;4902607;29;20139;-75
2022/12/27 02:10:15;;;;;;;5.97;5.23;;;12.50;96.70;;;;;;4891208;29;20048;-76
2022/12/27 02:12:43;;;;;;;8.05;6.03;;;12.50;96.70;;;;;;4895390;29;20294;-75
2022/12/27 02:15:12;;;;;;;7.85;6.25;;;12.60;96.70;;;;;;4888217;29;20037;-75
2022/12/27 02:17:40;;;;;;;7.93;5.22;;;12.60;96.70;;;;;;4894441;29;20044;-75
2022/12/27 02:20:13;;;;;;;8.95;5.38;;;12.60;96.70;;;;;;4890619;29;20044;-75
2022/12/27 02:26:39;;;;;;;7.25;6.30;;;12.70;96.70;;;;;;4891175;29;20097;-75
2022/12/27 02:29:27;;;;;;;9.77;6.93;;;12.70;96.70;;;;;;4899154;29;20115;-75
2022/12/27 02:32:00;;;;;;;9.15;6.28;;;12.70;96.70;;;;;;4893582;29;20048;-75
2022/12/27 02:34:40;;;;;;;10.02;6.50;;;12.70;96.70;;;;;;4898866;29;20049;-76
2022/12/27 02:37:12;;;;;;;8.82;6.25;;;12.70;96.70;;;;;;4887322;29;20053;-75
2022/12/27 02:39:44;;;;;;;7.20;6.05;;;12.70;96.70;;;;;;4896932;29;20057;-74
2022/12/27 02:53:53;;;;;;;7.43;5.40;;;12.70;96.70;;;;;;4879577;29;20147;-74
2022/12/27 02:59:29;;;;;;;7.20;5.28;;;12.70;96.70;;;;;;4892640;29;20056;-74
2022/12/27 03:05:10;;;;;;;8.73;4.53;;;12.70;96.70;;;;;;4898668;29;20051;-74
2022/12/27 03:07:48;;;;;;;6.75;4.80;;;12.70;96.70;;;;;;4906166;29;20060;-74
2022/12/27 03:16:25;;;;;;;7.68;4.50;;;12.70;96.70;;;;;;4901691;29;20045;-73
2022/12/27 03:19:08;;;;;;;7.70;4.05;;;12.70;96.70;;;;;;4862425;29;20163;-74
2022/12/27 03:27:20;;;;;;;5.35;3.95;;;12.70;96.70;;;;;;4858639;29;20535;-74
2022/12/27 03:35:37;;;;;;;6.15;4.50;;;12.70;96.70;;;;;;4870225;29;20128;-74
2022/12/27 03:38:11;;;;;;;6.05;3.97;;;12.70;96.70;;;;;;4870864;29;20134;-73
2022/12/27 03:43:35;;;;;;;5.10;4.43;;;12.70;96.70;;;;;;4876055;29;20097;-74
2022/12/27 03:46:34;;;;;;;10.35;4.85;;;12.80;96.70;;;;;;4878231;29;20060;-74
2022/12/27 03:49:14;;;;;;;6.22;4.03;;;12.80;96.70;;;;;;4867257;29;20053;-74
2022/12/27 03:51:48;;;;;;;5.43;3.80;;;12.80;96.70;;;;;;4854710;29;20068;-74
2022/12/27 03:54:25;;;;;;;6.50;4.20;;;12.80;96.70;;;;;;4860070;29;20151;-74
2022/12/27 03:56:55;;;;;;;6.38;4.13;;;12.80;96.70;;;;;;4894004;29;20067;-74
2022/12/27 03:59:25;;;;;;;5.43;4.25;;;12.80;96.70;;;;;;4889519;29;20459;-74
2022/12/27 04:01:54;;;;;;;5.20;4.00;;;12.80;96.70;;;;;;4897035;29;20550;-73
2022/12/27 04:04:23;;;;;;;6.50;4.47;;;12.80;96.70;;;;;;4890614;29;20048;-74
2022/12/27 04:06:52;;;;;;;7.20;4.60;;;12.80;96.70;;;;;;4893639;29;20045;-73
2022/12/27 04:34:44;;;;;;;5.80;4.20;;;12.60;96.70;;;;;;4890014;29;20044;-74
2022/12/27 04:37:15;;;;;;;5.38;4.22;;;12.70;96.70;;;;;;4891730;29;20064;-73
2022/12/27 04:56:34;;;;;;;8.63;4.15;;;12.50;96.70;;;;;;4921788;29;20047;-73
2022/12/27 05:02:02;;;;;;;10.05;4.30;;;12.40;96.70;;;;;;4913005;29;20043;-73
2022/12/27 05:04:34;;;;;;;4.45;3.38;;;12.40;96.70;;;;;;4893324;29;20102;-73
2022/12/27 05:15:28;;;;;;;7.43;4.38;;;12.30;96.70;;;;;;4900990;29;20131;-74
2022/12/27 05:17:57;;;;;;;7.28;4.75;;;12.20;96.70;;;;;;4895668;29;20047;-75
2022/12/27 05:20:25;;;;;;;5.97;4.53;;;12.20;96.70;;;;;;4917704;29;20060;-75
2022/12/27 05:25:41;;;;;;;4.95;4.45;;;12.30;96.70;;;;;;4914865;29;20115;-74
2022/12/27 05:28:11;;;;;;;6.75;4.10;;;12.30;96.70;;;;;;4889719;29;20087;-75
2022/12/27 05:30:42;;;;;;;7.78;5.00;;;12.30;96.70;;;;;;4918723;29;20051;-74
2022/12/27 05:33:11;;;;;;;6.93;4.63;;;12.30;96.70;;;;;;4908415;29;20604;-75
2022/12/27 05:35:39;;;;;;;6.05;5.10;;;12.30;96.70;;;;;;4909604;29;20048;-75
2022/12/27 05:38:08;;;;;;;6.50;5.13;;;12.20;96.70;;;;;;4889784;29;20492;-75
2022/12/27 05:40:36;;;;;;;7.63;4.93;;;12.20;96.70;;;;;;4882628;29;20056;-76
2022/12/27 05:43:04;;;;;;;7.43;4.53;;;12.20;96.70;;;;;;4918452;29;20066;-75
2022/12/27 05:45:34;;;;;;;6.13;4.97;;;12.20;96.70;;;;;;4904658;29;20095;-75
2022/12/27 05:48:03;;;;;;;7.70;4.82;;;12.20;96.70;;;;;;4913882;29;20087;-74
2022/12/27 05:50:31;;;;;;;6.47;4.80;;;12.20;96.70;;;;;;4899185;29;20071;-75
2022/12/27 05:53:12;;;;;;;6.78;5.55;;;12.20;96.70;;;;;;4906586;29;20067;-74
2022/12/27 05:55:41;;;;;;;9.40;6.43;;;12.30;96.70;;;;;;4911285;29;20208;-75
2022/12/27 05:58:09;;;;;;;9.18;6.20;;;12.30;96.70;;;;;;4899255;29;20043;-74
2022/12/27 06:00:39;;;;;;;7.22;5.88;;;12.30;96.70;;;;;;4906084;29;20044;-74
2022/12/27 06:03:07;;;;;;;7.60;5.25;;;12.30;96.70;;;;;;4898276;29;20048;-75
2022/12/27 06:05:36;;;;;;;7.32;4.80;;;12.30;96.70;;;;;;4917175;29;20048;-74
2022/12/27 06:08:05;;;;;;;9.25;4.93;;;12.40;96.70;;;;;;4880886;29;20044;-74
2022/12/27 06:10:33;;;;;;;8.82;4.80;;;12.40;96.70;;;;;;4890089;29;20055;-74
2022/12/27 06:13:03;;;;;;;6.95;5.63;;;12.40;96.70;;;;;;4898101;29;20526;-74
2022/12/27 06:15:31;;;;;;;7.97;5.82;;;12.40;96.70;;;;;;4915229;29;20498;-75
2022/12/27 06:18:02;;;;;;;7.70;6.10;;;12.40;96.70;;;;;;4891627;29;20059;-75
2022/12/27 06:20:30;;;;;;;6.95;5.50;;;12.40;96.70;;;;;;4897486;29;20051;-76
2022/12/27 06:22:59;;;;;;;13.93;7.03;;;12.40;96.70;;;;;;4900561;29;20056;-75
2022/12/27 06:25:28;;;;;;;16.42;10.18;;;12.40;96.70;;;;;;4917106;29;20422;-74
2022/12/27 06:27:56;;;;;;;12.82;7.35;;;12.40;96.70;;;;;;4904915;29;20076;-74
2022/12/27 06:30:24;;;;;;;14.38;8.10;;;12.40;96.70;;;;;;4927767;29;20052;-75
2022/12/27 06:32:58;;;;;;;11.63;6.82;;;12.40;96.70;;;;;;4900278;29;20781;-75
2022/12/27 06:35:28;;;;;;;9.55;6.47;;;12.30;96.70;;;;;;4901801;29;20044;-76
2022/12/27 06:37:56;;;;;;;10.32;6.57;;;12.40;96.70;;;;;;4907713;29;20130;-75
2022/12/27 06:40:25;;;;;;;11.18;5.80;;;12.40;96.70;;;;;;4893979;29;20048;-75
2022/12/27 06:42:53;;;;;;;7.18;5.65;;;12.30;96.70;;;;;;4892506;29;20060;-74
2022/12/27 06:45:21;;;;;;;9.38;6.03;;;12.30;96.70;;;;;;4916936;29;20044;-75
2022/12/27 06:47:50;;;;;;;8.57;5.32;;;12.20;96.70;;;;;;4922788;29;20044;-75
2022/12/27 06:50:18;;;;;;;8.57;5.22;;;12.10;96.70;;;;;;4928275;29;20044;-75
2022/12/27 06:52:48;;;;;;;9.93;5.20;;;12.10;96.70;;;;;;4884143;29;20535;-76
2022/12/27 06:55:17;;;;;;;8.82;5.25;;;12.10;96.70;;;;;;4888644;29;20143;-75
2022/12/27 06:57:45;;;;;;;6.15;4.45;;;12.20;96.70;;;;;;4903926;29;20048;-75
2022/12/27 07:00:15;;;;;;;7.35;4.40;;;12.20;96.70;;;;;;4921376;29;20055;-75
2022/12/27 07:02:43;;;;;;;9.32;5.25;;;12.20;96.70;;;;;;4912075;29;20605;-75
2022/12/27 07:05:13;;;;;;;6.85;4.47;;;12.20;96.70;;;;;;4928318;29;20044;-75
2022/12/27 07:07:41;;;;;;;7.25;4.35;;;12.30;96.70;;;;;;4893356;29;20052;-74
2022/12/27 07:10:11;;;;;;;6.32;4.43;;;12.30;96.70;;;;;;4920084;29;20577;-75
2022/12/27 07:12:39;;;;;;;6.32;4.38;;;12.30;96.70;;;;;;4924163;29;20056;-75
2022/12/27 07:15:09;;;;;;;7.78;3.38;;;12.30;96.70;;;;;;4906465;29;20035;-75
2022/12/27 07:17:38;;;;;;;4.35;3.72;;;12.30;96.70;;;;;;4920889;29;20043;-74
2022/12/27 07:20:07;;;;;;;5.82;4.28;;;12.30;96.70;;;;;;4902718;29;20043;-75
2022/12/27 07:22:35;;;;;;;4.95;3.70;;;12.40;96.70;;;;;;4905542;29;20550;-75
2022/12/27 07:25:04;;;;;;;7.72;5.03;;;12.40;96.70;;;;;;4920624;29;20719;-75
2022/12/27 07:27:34;;;;;;;9.38;4.70;;;12.40;96.70;;;;;;4909939;29;20509;-75
2022/12/27 07:30:03;;;;;;;8.32;4.55;;;12.40;96.70;;;;;;4917761;29;20051;-75
2022/12/27 07:32:32;;;;;;;5.75;4.15;;;12.40;96.70;;;;;;4919353;29;20047;-75
2022/12/27 07:35:00;;;;;;;9.00;4.80;;;12.40;96.70;;;;;;4910472;29;20048;-75
2022/12/27 07:37:28;;;;;;;8.52;4.68;;;12.40;96.70;;;;;;4901760;29;20050;-76
2022/12/27 07:39:57;;;;;;;8.82;4.50;;;12.40;96.70;;;;;;4899312;29;20672;-75
2022/12/27 07:42:27;;;;;;;10.13;5.25;;;12.50;96.70;;;;;;4893680;29;20052;-75
2022/12/27 07:44:58;;;;;;;7.93;4.10;;;12.50;96.70;;;;;;4903535;29;20076;-75
2022/12/27 07:47:27;;;;;;;9.02;4.95;;;12.50;96.70;;;;;;4908811;29;20063;-75
2022/12/27 07:49:55;;;;;;;9.20;5.55;;;12.50;96.70;;;;;;4890107;29;20496;-75
2022/12/27 07:52:25;;;;;;;8.32;5.45;;;12.50;96.70;;;;;;4888993;29;20407;-75
2022/12/27 07:54:53;;;;;;;10.68;5.38;;;12.60;96.70;;;;;;4896925;29;20044;-74
2022/12/27 07:57:22;;;;;;;6.90;4.40;;;12.60;96.70;;;;;;4905460;29;20356;-77
2022/12/27 07:59:50;;;;;;;9.60;5.10;;;12.60;96.70;;;;;;4897807;29;20060;-76
2022/12/27 08:02:19;;;;;;;8.80;5.25;;;12.70;96.70;;;;;;4899143;29;20139;-75
2022/12/27 08:04:48;;;;;;;10.40;6.22;;;12.70;96.70;;;;;;4890920;29;20507;-74
2022/12/27 08:07:18;;;;;;;10.55;6.15;;;12.70;96.70;;;;;;4907858;29;20155;-74
2022/12/27 08:09:47;;;;;;;13.48;6.72;;;12.80;96.70;;;;;;4891939;29;20052;-75
2022/12/27 08:12:15;;;;;;;9.30;5.53;;;12.80;96.70;;;;;;4892736;29;20403;-75
2022/12/27 08:14:44;;;;;;;10.02;5.57;;;12.80;96.70;;;;;;4900158;29;20056;-74
2022/12/27 08:17:19;;;;;;;9.93;5.68;;;12.90;96.70;;;;;;4897883;29;20669;-75
2022/12/27 08:19:50;;;;;;;9.60;5.10;;;12.90;96.70;;;;;;4888642;29;20136;-74
2022/12/27 08:22:18;;;;;;;9.60;5.15;;;12.90;96.70;;;;;;4894862;29;20052;-74
2022/12/27 08:24:47;;;;;;;10.73;5.50;;;12.90;96.70;;;;;;4895063;29;20079;-75
2022/12/27 08:27:21;;;;;;;15.43;7.45;;;13.00;96.70;;;;;;4908034;29;20056;-75
2022/12/27 08:29:49;;;;;;;9.35;5.47;;;13.00;96.70;;;;;;4889021;29;20056;-76
2022/12/27 08:32:17;;;;;;;10.88;6.40;;;13.00;96.70;;;;;;4898506;29;20097;-76
2022/12/27 08:34:46;;;;;;;10.10;4.90;;;13.00;96.70;;;;;;4895882;29;20064;-76
2022/12/27 08:37:15;;;;;;;8.05;5.35;;;13.10;96.70;;;;;;4876049;29;20056;-77
2022/12/27 08:39:43;;;;;;;10.32;5.00;;;13.10;96.70;;;;;;4894779;29;20459;-76
2022/12/27 08:42:12;;;;;;;7.90;3.97;;;13.10;96.70;;;;;;4895343;29;20043;-75
2022/12/27 08:44:40;;;;;;;9.98;4.93;;;13.10;96.70;;;;;;4913235;29;20051;-76
2022/12/27 08:47:09;;;;;;;8.50;4.47;;;13.20;96.70;;;;;;4915317;29;20084;-76
2022/12/27 08:49:37;;;;;;;6.20;3.95;;;13.20;96.70;;;;;;4898745;29;20048;-75
2022/12/27 08:52:05;;;;;;;6.93;4.00;;;13.20;96.70;;;;;;4912438;29;20068;-76
2022/12/27 08:54:35;;;;;;;8.98;3.75;;;13.30;96.70;;;;;;4889402;29;20047;-75
2022/12/27 08:57:03;;;;;;;9.13;4.85;;;13.30;96.70;;;;;;4890293;29;20115;-75
2022/12/27 08:59:31;;;;;;;14.20;5.68;;;13.30;96.70;;;;;;4907586;29;20128;-74
2022/12/27 09:01:59;;;;;;;8.70;4.40;;;13.30;96.70;;;;;;4890323;29;20511;-75
2022/12/27 09:04:27;;;;;;;6.22;3.72;;;13.30;96.70;;;;;;4890613;29;20465;-75
2022/12/27 09:06:55;;;;;;;8.43;4.22;;;13.40;96.70;;;;;;4923971;29;20051;-75
2022/12/27 09:09:24;;;;;;;7.78;4.03;;;13.40;96.70;;;;;;4881785;29;20133;-75
2022/12/27 09:11:53;;;;;;;8.10;4.18;;;13.30;96.70;;;;;;4896406;29;20047;-75
2022/12/27 09:14:24;;;;;;;7.22;4.03;;;13.30;96.70;;;;;;4894145;29;20092;-76
2022/12/27 09:16:52;;;;;;;7.40;4.05;;;13.40;96.70;;;;;;4916025;29;20043;-76
2022/12/27 09:19:21;;;;;;;6.22;3.63;;;13.40;96.70;;;;;;4895045;29;20056;-77
2022/12/27 09:21:49;;;;;;;8.05;4.05;;;13.40;96.70;;;;;;4875557;29;20138;-76
2022/12/27 09:24:17;;;;;;;5.72;3.67;;;13.40;96.70;;;;;;4917900;29;20052;-75
2022/12/27 09:26:45;;;;;;;7.97;3.92;;;13.50;96.70;;;;;;4911091;29;20044;-75
2022/12/27 09:29:15;;;;;;;5.72;3.85;;;13.60;96.70;;;;;;4895999;29;20945;-75
2022/12/27 09:31:43;;;;;;;5.97;4.18;;;13.80;96.70;;;;;;4899543;29;20074;-75
2022/12/27 09:34:11;;;;;;;9.23;4.75;;;13.90;96.70;;;;;;4894862;29;20091;-75
2022/12/27 09:36:41;;;;;;;7.40;4.35;;;13.90;96.70;;;;;;4886831;29;20430;-76
2022/12/27 09:39:12;;;;;;;7.40;5.03;;;14.00;96.70;;;;;;4896065;29;20056;-75
2022/12/27 09:41:49;;;;;;;5.97;4.07;;;14.00;96.70;;;;;;4895535;29;20147;-75
2022/12/27 09:44:49;;;;;;;5.23;4.10;;;14.20;96.70;;;;;;4914981;29;20059;-75
2022/12/27 09:47:24;;;;;;;6.72;4.60;;;14.30;96.70;;;;;;4899665;29;20045;-76
2022/12/27 09:49:57;;;;;;;7.15;4.15;;;14.30;96.70;;;;;;4918510;29;20131;-76
2022/12/27 09:52:31;;;;;;;7.95;4.25;;;14.40;96.70;;;;;;4901217;29;20047;-75
2022/12/27 09:55:04;;;;;;;7.75;5.18;;;14.40;96.70;;;;;;4910185;29;20079;-75
2022/12/27 09:57:36;;;;;;;9.30;4.82;;;14.40;96.70;;;;;;4898718;29;20056;-74
2022/12/27 10:00:14;;;;;;;10.30;4.72;;;14.50;96.70;;;;;;4908981;29;20051;-75
2022/12/27 10:02:43;;;;;;;6.03;4.25;;;14.70;96.70;;;;;;4911548;29;20395;-75
2022/12/27 10:05:18;;;;;;;7.93;5.07;;;14.80;96.70;;;;;;4886556;29;20126;-75
2022/12/27 10:08:09;;;;;;;8.98;5.00;;;14.90;96.70;;;;;;4897090;29;20059;-77
2022/12/27 10:10:43;;;;;;;7.05;5.32;;;14.90;96.70;;;;;;4928273;29;20043;-74
2022/12/27 10:13:26;;;;;;;6.40;4.47;;;15.00;96.70;;;;;;4887549;29;20094;-74
2022/12/27 10:16:07;;;;;;;10.90;4.40;;;15.20;96.70;;;;;;4901533;29;20051;-73
2022/12/27 10:18:45;;;;;;;7.80;4.32;;;15.30;96.70;;;;;;4919234;29;20155;-75
2022/12/27 10:21:19;;;;;;;9.10;4.22;;;15.30;96.70;;;;;;4908824;29;20052;-74
2022/12/27 10:23:54;;;;;;;9.98;4.15;;;15.40;96.70;;;;;;4903443;29;20048;-74
2022/12/27 10:26:22;;;;;;;7.88;4.22;;;15.50;96.70;;;;;;4901629;29;20048;-73
2022/12/27 10:28:57;;;;;;;11.65;4.85;;;15.50;96.70;;;;;;4893173;29;20130;-75
2022/12/27 10:31:27;;;;;;;6.07;3.53;;;15.50;96.70;;;;;;4907732;29;20511;-75
2022/12/27 10:33:56;;;;;;;6.53;3.60;;;15.60;96.70;;;;;;4902447;29;20070;-75
2022/12/27 10:36:27;;;;;;;6.75;3.95;;;15.70;96.70;;;;;;4900243;29;20039;-75
2022/12/27 10:38:55;;;;;;;6.32;3.60;;;15.80;96.70;;;;;;4911237;29;20463;-75
2022/12/27 10:41:31;;;;;;;6.53;3.40;;;15.90;96.70;;;;;;4905991;29;20044;-75
2022/12/27 10:43:59;;;;;;;5.18;3.63;;;16.00;96.70;;;;;;4889397;29;20064;-74
2022/12/27 10:46:31;;;;;;;5.75;3.42;;;16.00;96.70;;;;;;4897064;29;20844;-75
2022/12/27 10:49:04;;;;;;;8.55;4.32;;;16.10;96.70;;;;;;4903580;29;20053;-75
2022/12/27 10:51:50;;;;;;;6.03;3.50;;;16.10;96.70;;;;;;4894313;29;20503;-75
2022/12/27 10:54:22;;;;;;;6.05;3.40;;;16.20;96.70;;;;;;4879929;29;20044;-75
2022/12/27 10:56:51;;;;;;;7.10;3.42;;;16.30;96.70;;;;;;4908348;29;20076;-74
2022/12/27 10:59:21;;;;;;;6.47;3.58;;;16.40;96.70;;;;;;4898726;29;20566;-75
2022/12/27 11:02:13;;;;;;;9.00;4.15;;;16.40;96.70;;;;;;4898592;29;20048;-75
2022/12/27 11:04:56;;;;;;;5.13;3.40;;;16.40;96.70;;;;;;4891074;29;20048;-75
2022/12/27 11:07:29;;;;;;;6.38;3.85;;;16.50;96.70;;;;;;4889406;29;20049;-75
2022/12/27 11:10:06;;;;;;;5.00;3.28;;;16.60;96.70;;;;;;4897947;29;20049;-75
2022/12/27 11:12:35;;;;;;;6.28;3.40;;;16.70;96.70;;;;;;4885269;29;20053;-75
2022/12/27 11:15:05;;;;;;;6.05;3.15;;;16.80;96.70;;;;;;4899937;29;20048;-75
2022/12/27 11:17:39;;;;;;;5.72;3.50;;;16.90;96.70;;;;;;4903278;29;20055;-75
2022/12/27 11:20:21;;;;;;;4.55;2.80;;;17.00;96.70;;;;;;4884559;29;20059;-75
2022/12/27 11:22:53;;;;;;;7.80;3.50;;;17.10;96.70;;;;;;4891013;29;20048;-75
2022/12/27 11:25:21;;;;;;;6.00;3.25;;;17.20;96.70;;;;;;4897232;29;20059;-75
2022/12/27 11:27:52;;;;;;;5.68;3.03;;;17.30;96.70;;;;;;4897217;29;20048;-74
2022/12/27 11:30:25;;;;;;;6.03;3.50;;;17.40;96.70;;;;;;4898014;29;20059;-75
2022/12/27 11:33:00;;;;;;;5.38;3.55;;;17.40;96.70;;;;;;4903604;29;20056;-75
2022/12/27 11:35:29;;;;;;;6.93;3.83;;;17.40;96.70;;;;;;4907736;29;20790;-75
2022/12/27 11:37:57;;;;;;;5.25;3.60;;;17.40;96.70;;;;;;4893601;29;20068;-75
2022/12/27 11:40:29;;;;;;;7.60;3.90;;;17.50;96.70;;;;;;4883560;29;20056;-75
2022/12/27 11:43:04;;;;;;;7.55;3.63;;;17.60;96.70;;;;;;4890462;29;20615;-76
2022/12/27 11:45:37;;;;;;;7.45;3.70;;;17.70;96.70;;;;;;4892044;29;20053;-75
2022/12/27 11:48:19;;;;;;;4.85;3.10;;;17.80;96.70;;;;;;4887541;29;20056;-75
2022/12/27 11:51:02;;;;;;;5.35;3.17;;;17.90;96.70;;;;;;4888226;29;20048;-75
2022/12/27 11:54:11;;;;;;;6.53;3.67;;;17.90;96.70;;;;;;4888233;29;20069;-75
2022/12/27 11:56:43;;;;;;;4.78;3.55;;;17.80;96.70;;;;;;4893349;29;20048;-75
2022/12/27 11:59:36;;;;;;;6.15;4.70;;;17.60;96.70;;;;;;4892279;29;20088;-75
2022/12/27 12:02:40;;;;;;;6.82;3.65;;;17.40;96.70;;;;;;4890344;29;20068;-75
2022/12/27 12:05:49;;;;;;;9.10;3.30;;;17.20;96.70;;;;;;4889210;29;20080;-75
2022/12/27 12:08:41;;;;;;;6.35;4.45;;;17.10;96.70;;;;;;4889046;29;20163;-75
2022/12/27 12:11:30;;;;;;;7.38;4.78;;;17.00;96.70;;;;;;4880011;29;20072;-75
2022/12/27 12:14:34;;;;;;;8.82;4.97;;;17.30;96.70;;;;;;4890902;29;20840;-75
2022/12/27 12:17:24;;;;;;;7.60;4.53;;;17.50;96.70;;;;;;4898913;29;20063;-75
2022/12/27 12:20:21;;;;;;;6.95;5.00;;;17.80;96.70;;;;;;4900984;29;20499;-75
2022/12/27 12:23:04;;;;;;;5.38;3.40;;;18.00;96.70;;;;;;4904019;29;20569;-75
2022/12/27 12:26:15;;;;;;;6.95;3.45;;;18.20;96.70;;;;;;4894240;29;20056;-75
2022/12/27 12:29:29;;;;;;;4.00;2.97;;;18.20;96.70;;;;;;4889890;29;20059;-75
2022/12/27 12:32:25;;;;;;;6.47;4.30;;;18.10;96.70;;;;;;4875720;29;20415;-75
2022/12/27 12:35:31;;;;;;;7.53;3.72;;;18.00;96.70;;;;;;4902627;29;20044;-75
2022/12/27 12:38:16;;;;;;;5.50;3.70;;;18.40;96.70;;;;;;4903734;29;20053;-75
2022/12/27 12:41:22;;;;;;;4.85;3.30;;;18.40;96.70;;;;;;4895226;29;20059;-75
2022/12/27 12:44:43;;;;;;;6.77;3.60;;;18.30;96.70;;;;;;4872772;29;20061;-74
2022/12/27 12:47:27;;;;;;;6.95;4.47;;;18.20;96.70;;;;;;4892646;29;20296;-75
2022/12/27 12:50:19;;;;;;;9.30;5.38;;;18.20;96.70;;;;;;4897641;29;20148;-75
2022/12/27 12:53:16;;;;;;;9.38;6.13;;;18.10;96.70;;;;;;4892194;29;20056;-75
2022/12/27 12:55:57;;;;;;;6.35;2.88;;;18.00;96.70;;;;;;4901661;29;20061;-75
2022/12/27 12:58:45;;;;;;;6.03;2.33;;;17.90;96.70;;;;;;4897506;29;20070;-75
2022/12/27 13:01:31;;;;;;;10.45;7.95;;;17.80;96.70;;;;;;4887057;29;20064;-74
2022/12/27 13:04:32;;;;;;;6.25;3.38;;;18.00;96.70;;;;;;4889208;29;20463;-75
2022/12/27 13:07:26;;;;;;;10.68;7.22;;;18.00;96.70;;;;;;4891826;29;20044;-74
2022/12/27 13:10:44;;;;;;;5.90;4.00;;;18.20;96.70;;;;;;4890664;29;20076;-75
2022/12/27 13:13:15;;;;;;;;;;;18.50;96.70;;;;;;4907519;29;20570;-75
2022/12/27 13:16:02;;;;;;;6.03;3.47;;;18.70;96.70;;;;;;4904880;29;20022;-75
2022/12/27 13:18:40;;;;;;;6.15;2.08;;;18.70;96.70;;;;;;4898575;29;20447;-74
2022/12/27 13:21:21;;;;;;;3.75;1.50;;;18.70;96.70;;;;;;4890480;29;20422;-75
2022/12/27 13:24:06;;;;;;;3.10;1.70;;;18.70;96.70;;;;;;4901168;29;20570;-75
2022/12/27 13:26:44;;;;;;;3.25;1.20;;;18.60;96.70;;;;;;4897323;29;20056;-75
2022/12/27 13:29:44;;;;;;;5.35;1.60;;;18.50;96.70;;;;;;4893071;29;20076;-76
2022/12/27 13:32:22;;;;;;;6.95;1.77;;;18.40;96.70;;;;;;4879932;29;20112;-75
2022/12/27 13:35:04;;;;;;;3.95;1.40;;;18.30;96.70;;;;;;4891670;29;20130;-75
2022/12/27 13:37:45;;;;;;;4.18;1.48;;;18.20;96.70;;;;;;4904331;29;20051;-75
2022/12/27 13:40:54;;;;;;;6.45;1.52;;;17.90;96.70;;;;;;4891464;29;20459;-75
2022/12/27 13:44:06;;;;;;;5.03;1.55;;;17.80;96.70;;;;;;4907204;29;20387;-75
2022/12/27 13:46:48;;;;;;;4.57;1.60;;;17.70;96.70;;;;;;4883198;29;20114;-75
2022/12/27 13:49:44;;;;;;;4.32;1.80;;;17.50;96.70;;;;;;4925057;29;20520;-75
2022/12/27 13:52:36;;;;;;;4.60;1.77;;;17.50;96.70;;;;;;4894096;29;20143;-76
2022/12/27 13:55:34;;;;;;;4.20;1.65;;;17.40;96.70;;;;;;4892590;29;20134;-75
2022/12/27 13:58:44;;;;;;;4.32;1.70;;;17.40;96.70;;;;;;4892350;29;20078;-74
2022/12/27 14:01:41;;;;;;;3.88;1.77;;;17.30;96.70;;;;;;4894320;29;20103;-75
2022/12/27 14:05:03;;;;;;;3.80;1.75;;;17.30;96.70;;;;;;4892288;29;20426;-75
2022/12/27 14:07:46;;;;;;;4.63;1.70;;;17.10;96.70;;;;;;4867066;29;20146;-75
2022/12/27 14:10:25;;;;;;;6.25;2.10;;;17.10;96.70;;;;;;4910447;29;20113;-74
2022/12/27 14:12:58;;;;;;;6.97;2.40;;;17.10;96.70;;;;;;4890013;29;20119;-75
2022/12/27 14:15:58;;;;;;;9.48;2.45;;;17.10;96.70;;;;;;4900852;29;20059;-75
2022/12/27 14:18:50;;;;;;;3.22;1.65;;;17.20;96.70;;;;;;4899347;29;20047;-75
2022/12/27 14:21:40;;;;;;;8.05;3.67;;;17.10;96.70;;;;;;4905024;29;20428;-75
2022/12/27 14:24:28;;;;;;;11.93;5.97;;;17.10;96.70;;;;;;4905434;29;20044;-75
2022/12/27 14:27:52;;;;;;;4.70;3.15;;;17.10;96.70;;;;;;4909413;29;20700;-75
2022/12/27 14:30:40;;;;;;;7.68;3.67;;;17.10;96.70;;;;;;4896860;29;20066;-74
2022/12/27 14:33:59;;;;;;;7.72;4.50;;;17.10;96.70;;;;;;4880475;29;20063;-74
2022/12/27 14:36:58;;;;;;;7.03;2.58;;;17.10;96.70;;;;;;4843696;29;20557;-75
2022/12/27 14:40:09;;;;;;;4.95;2.83;;;17.10;96.70;;;;;;4894838;29;20753;-74
2022/12/27 14:43:25;;;;;;;3.58;2.00;;;17.00;96.70;;;;;;4927986;29;20047;-74
2022/12/27 14:46:31;;;;;;;4.65;2.13;;;17.00;96.70;;;;;;4927918;29;20082;-75
2022/12/27 14:49:35;;;;;;;8.07;2.22;;;16.90;96.70;;;;;;4889698;29;20171;-74
2022/12/27 14:52:33;;;;;;;6.35;2.10;;;16.90;96.70;;;;;;4900624;29;20418;-74
2022/12/27 14:55:30;;;;;;;4.60;1.98;;;16.80;96.70;;;;;;4898997;29;20151;-74
2022/12/27 14:58:15;;;;;;;5.28;2.00;;;16.80;96.70;;;;;;4892535;29;20056;-75
2022/12/27 15:01:04;;;;;;;4.63;2.20;;;16.70;96.70;;;;;;4893807;29;20139;-74
2022/12/27 15:03:50;;;;;;;5.30;2.08;;;16.70;96.70;;;;;;4922976;29;20051;-74
2022/12/27 15:06:32;;;;;;;5.57;2.28;;;16.60;96.70;;;;;;4900431;29;20062;-74
2022/12/27 15:09:10;;;;;;;6.18;2.65;;;16.60;96.70;;;;;;4889706;29;20051;-75
2022/12/27 15:11:55;;;;;;;8.38;3.20;;;16.50;96.70;;;;;;4912543;29;20092;-75
2022/12/27 15:14:45;;;;;;;4.28;2.45;;;16.50;96.70;;;;;;4900000;29;20144;-74